sensor_id;sensor_type;location;lat;lon;timestamp;P1;durP1;ratioP1;P2;durP2;ratioP2
1577;SDS011;57623;53.608;10.004;2023-05-29T00:01:55;5.73;;;2.90;;
1577;SDS011;57623;53.608;10.004;2023-05-29T00:04:23;5.53;;;2.20;;
1577;SDS011;57623;53.608;10.004;2023-05-29T00:06:51;7.43;;;2.80;;
1577;SDS011;57623;53.608;10.004;2023-05-29T00:09:19;7.17;;;2.60;;
1577;SDS011;57623;53.608;10.004;2023-05-29T00:11:48;10.77;;;2.73;;
1577;SDS011;57623;53.608;10.004;2023-05-29T00:14:19;7.73;;;3.10;;
1577;SDS011;57623;53.608;10.004;2023-05-29T00:16:48;6.90;;;2.80;;
1577;SDS011;57623;53.608;10.004;2023-05-29T00:19:17;8.80;;;2.90;;
1577;SDS011;57623;53.608;10.004;2023-05-29T00:21:45;5.73;;;3.33;;
1577;SDS011;57623;53.608;10.004;2023-05-29T00:24:16;5.00;;;2.50;;
1577;SDS011;57623;53.608;10.004;2023-05-29T00:26:44;5.50;;;2.73;;
1577;SDS011;57623;53.608;10.004;2023-05-29T00:29:14;6.23;;;2.70;;
1577;SDS011;57623;53.608;10.004;2023-05-29T00:31:42;3.90;;;2.40;;
1577;SDS011;57623;53.608;10.004;2023-05-29T00:34:10;8.10;;;2.60;;
1577;SDS011;57623;53.608;10.004;2023-05-29T00:36:38;7.17;;;2.93;;
1577;SDS011;57623;53.608;10.004;2023-05-29T00:39:06;8.03;;;2.80;;
1577;SDS011;57623;53.608;10.004;2023-05-29T00:41:35;5.90;;;2.50;;
1577;SDS011;57623;53.608;10.004;2023-05-29T00:44:03;6.30;;;3.20;;
1577;SDS011;57623;53.608;10.004;2023-05-29T00:46:32;7.07;;;2.47;;
1577;SDS011;57623;53.608;10.004;2023-05-29T00:49:01;6.33;;;2.60;;
1577;SDS011;57623;53.608;10.004;2023-05-29T00:51:31;7.37;;;2.77;;
1577;SDS011;57623;53.608;10.004;2023-05-29T00:53:59;9.23;;;2.93;;
1577;SDS011;57623;53.608;10.004;2023-05-29T00:56:27;6.13;;;2.37;;
1577;SDS011;57623;53.608;10.004;2023-05-29T00:58:56;7.90;;;2.73;;
1577;SDS011;57623;53.608;10.004;2023-05-29T01:01:24;6.23;;;2.47;;
1577;SDS011;57623;53.608;10.004;2023-05-29T01:03:54;7.13;;;2.50;;
1577;SDS011;57623;53.608;10.004;2023-05-29T01:06:24;8.83;;;2.53;;
1577;SDS011;57623;53.608;10.004;2023-05-29T01:08:54;7.37;;;2.60;;
1577;SDS011;57623;53.608;10.004;2023-05-29T01:11:24;8.97;;;3.40;;
1577;SDS011;57623;53.608;10.004;2023-05-29T01:14:00;5.50;;;2.40;;
1577;SDS011;57623;53.608;10.004;2023-05-29T01:16:35;7.60;;;2.73;;
1577;SDS011;57623;53.608;10.004;2023-05-29T01:19:16;7.80;;;3.03;;
1577;SDS011;57623;53.608;10.004;2023-05-29T01:21:54;8.10;;;3.27;;
1577;SDS011;57623;53.608;10.004;2023-05-29T01:24:32;8.80;;;2.90;;
1577;SDS011;57623;53.608;10.004;2023-05-29T01:27:06;8.60;;;2.70;;
1577;SDS011;57623;53.608;10.004;2023-05-29T01:29:37;8.87;;;2.63;;
1577;SDS011;57623;53.608;10.004;2023-05-29T01:32:06;7.33;;;2.50;;
1577;SDS011;57623;53.608;10.004;2023-05-29T01:34:35;11.90;;;2.90;;
1577;SDS011;57623;53.608;10.004;2023-05-29T01:37:03;6.17;;;2.60;;
1577;SDS011;57623;53.608;10.004;2023-05-29T01:39:31;9.27;;;2.83;;
1577;SDS011;57623;53.608;10.004;2023-05-29T01:42:00;9.63;;;2.67;;
1577;SDS011;57623;53.608;10.004;2023-05-29T01:44:30;10.50;;;2.77;;
1577;SDS011;57623;53.608;10.004;2023-05-29T01:46:59;6.00;;;2.40;;
1577;SDS011;57623;53.608;10.004;2023-05-29T01:49:27;10.00;;;2.93;;
1577;SDS011;57623;53.608;10.004;2023-05-29T01:51:57;5.70;;;2.43;;
1577;SDS011;57623;53.608;10.004;2023-05-29T01:54:26;4.97;;;2.30;;
1577;SDS011;57623;53.608;10.004;2023-05-29T01:56:54;8.60;;;2.50;;
1577;SDS011;57623;53.608;10.004;2023-05-29T01:59:23;6.03;;;2.30;;
1577;SDS011;57623;53.608;10.004;2023-05-29T02:01:54;7.10;;;3.00;;
1577;SDS011;57623;53.608;10.004;2023-05-29T02:04:22;6.07;;;2.30;;
1577;SDS011;57623;53.608;10.004;2023-05-29T02:06:50;8.43;;;2.60;;
1577;SDS011;57623;53.608;10.004;2023-05-29T02:09:19;7.10;;;2.47;;
1577;SDS011;57623;53.608;10.004;2023-05-29T02:11:48;8.13;;;2.77;;
1577;SDS011;57623;53.608;10.004;2023-05-29T02:14:16;5.60;;;2.33;;
1577;SDS011;57623;53.608;10.004;2023-05-29T02:16:44;7.33;;;2.90;;
1577;SDS011;57623;53.608;10.004;2023-05-29T02:19:14;6.73;;;2.10;;
1577;SDS011;57623;53.608;10.004;2023-05-29T02:21:42;7.80;;;2.30;;
1577;SDS011;57623;53.608;10.004;2023-05-29T02:24:10;12.03;;;3.20;;
1577;SDS011;57623;53.608;10.004;2023-05-29T02:26:38;6.03;;;2.87;;
1577;SDS011;57623;53.608;10.004;2023-05-29T02:29:06;7.80;;;2.20;;
1577;SDS011;57623;53.608;10.004;2023-05-29T02:31:34;7.07;;;2.87;;
1577;SDS011;57623;53.608;10.004;2023-05-29T02:34:05;8.67;;;2.47;;
1577;SDS011;57623;53.608;10.004;2023-05-29T02:36:34;6.50;;;2.20;;
1577;SDS011;57623;53.608;10.004;2023-05-29T02:39:03;8.40;;;3.33;;
1577;SDS011;57623;53.608;10.004;2023-05-29T02:41:32;7.57;;;3.00;;
1577;SDS011;57623;53.608;10.004;2023-05-29T02:44:00;8.40;;;3.10;;
1577;SDS011;57623;53.608;10.004;2023-05-29T02:46:28;8.40;;;3.10;;
1577;SDS011;57623;53.608;10.004;2023-05-29T02:48:56;8.93;;;3.23;;
1577;SDS011;57623;53.608;10.004;2023-05-29T02:51:24;7.47;;;2.70;;
1577;SDS011;57623;53.608;10.004;2023-05-29T02:53:54;6.83;;;2.30;;
1577;SDS011;57623;53.608;10.004;2023-05-29T02:56:23;8.00;;;2.73;;
1577;SDS011;57623;53.608;10.004;2023-05-29T02:58:52;8.83;;;3.00;;
1577;SDS011;57623;53.608;10.004;2023-05-29T03:01:20;7.00;;;2.80;;
1577;SDS011;57623;53.608;10.004;2023-05-29T03:03:48;14.20;;;4.30;;
1577;SDS011;57623;53.608;10.004;2023-05-29T03:06:16;10.03;;;3.03;;
1577;SDS011;57623;53.608;10.004;2023-05-29T03:08:47;6.00;;;2.80;;
1577;SDS011;57623;53.608;10.004;2023-05-29T03:11:17;8.37;;;2.87;;
1577;SDS011;57623;53.608;10.004;2023-05-29T03:13:45;6.37;;;2.73;;
1577;SDS011;57623;53.608;10.004;2023-05-29T03:16:15;6.60;;;2.83;;
1577;SDS011;57623;53.608;10.004;2023-05-29T03:18:43;7.03;;;2.40;;
1577;SDS011;57623;53.608;10.004;2023-05-29T03:21:11;6.40;;;2.53;;
1577;SDS011;57623;53.608;10.004;2023-05-29T03:23:39;11.10;;;2.73;;
1577;SDS011;57623;53.608;10.004;2023-05-29T03:26:07;5.60;;;2.63;;
1577;SDS011;57623;53.608;10.004;2023-05-29T03:28:38;7.60;;;3.00;;
1577;SDS011;57623;53.608;10.004;2023-05-29T03:31:06;9.33;;;2.53;;
1577;SDS011;57623;53.608;10.004;2023-05-29T03:33:35;8.10;;;2.50;;
1577;SDS011;57623;53.608;10.004;2023-05-29T03:36:03;9.97;;;3.03;;
1577;SDS011;57623;53.608;10.004;2023-05-29T03:38:34;6.20;;;2.43;;
1577;SDS011;57623;53.608;10.004;2023-05-29T03:41:02;6.47;;;2.80;;
1577;SDS011;57623;53.608;10.004;2023-05-29T03:43:30;10.20;;;2.90;;
1577;SDS011;57623;53.608;10.004;2023-05-29T03:45:59;7.03;;;3.13;;
1577;SDS011;57623;53.608;10.004;2023-05-29T03:48:27;7.40;;;2.70;;
1577;SDS011;57623;53.608;10.004;2023-05-29T03:50:55;12.07;;;3.70;;
1577;SDS011;57623;53.608;10.004;2023-05-29T03:53:23;9.47;;;2.87;;
1577;SDS011;57623;53.608;10.004;2023-05-29T03:55:51;7.57;;;2.90;;
1577;SDS011;57623;53.608;10.004;2023-05-29T03:58:20;11.90;;;3.50;;
1577;SDS011;57623;53.608;10.004;2023-05-29T04:00:48;6.17;;;2.37;;
1577;SDS011;57623;53.608;10.004;2023-05-29T04:03:17;7.60;;;2.77;;
1577;SDS011;57623;53.608;10.004;2023-05-29T04:05:45;9.90;;;3.50;;
1577;SDS011;57623;53.608;10.004;2023-05-29T04:08:13;10.37;;;4.00;;
1577;SDS011;57623;53.608;10.004;2023-05-29T04:10:42;11.70;;;3.57;;
1577;SDS011;57623;53.608;10.004;2023-05-29T04:13:10;8.57;;;2.90;;
1577;SDS011;57623;53.608;10.004;2023-05-29T04:15:38;14.30;;;4.07;;
1577;SDS011;57623;53.608;10.004;2023-05-29T04:18:08;8.90;;;3.10;;
1577;SDS011;57623;53.608;10.004;2023-05-29T04:20:37;11.23;;;3.23;;
1577;SDS011;57623;53.608;10.004;2023-05-29T04:23:05;8.20;;;2.73;;
1577;SDS011;57623;53.608;10.004;2023-05-29T04:25:34;8.50;;;3.13;;
1577;SDS011;57623;53.608;10.004;2023-05-29T04:28:02;10.10;;;3.10;;
1577;SDS011;57623;53.608;10.004;2023-05-29T04:30:31;7.57;;;2.60;;
1577;SDS011;57623;53.608;10.004;2023-05-29T04:33:00;9.27;;;3.13;;
1577;SDS011;57623;53.608;10.004;2023-05-29T04:35:29;6.90;;;2.73;;
1577;SDS011;57623;53.608;10.004;2023-05-29T04:37:58;9.73;;;2.63;;
1577;SDS011;57623;53.608;10.004;2023-05-29T04:40:26;11.57;;;3.60;;
1577;SDS011;57623;53.608;10.004;2023-05-29T04:42:54;6.20;;;2.77;;
1577;SDS011;57623;53.608;10.004;2023-05-29T04:45:26;8.23;;;3.17;;
1577;SDS011;57623;53.608;10.004;2023-05-29T04:47:54;8.27;;;3.43;;
1577;SDS011;57623;53.608;10.004;2023-05-29T04:50:22;10.53;;;4.13;;
1577;SDS011;57623;53.608;10.004;2023-05-29T04:52:51;11.23;;;3.13;;
1577;SDS011;57623;53.608;10.004;2023-05-29T04:55:20;8.60;;;2.97;;
1577;SDS011;57623;53.608;10.004;2023-05-29T04:57:49;8.63;;;2.83;;
1577;SDS011;57623;53.608;10.004;2023-05-29T05:00:18;7.50;;;3.07;;
1577;SDS011;57623;53.608;10.004;2023-05-29T05:02:47;6.73;;;2.63;;
1577;SDS011;57623;53.608;10.004;2023-05-29T05:05:17;15.30;;;3.93;;
1577;SDS011;57623;53.608;10.004;2023-05-29T05:07:45;7.87;;;3.00;;
1577;SDS011;57623;53.608;10.004;2023-05-29T05:10:13;8.50;;;3.27;;
1577;SDS011;57623;53.608;10.004;2023-05-29T05:12:42;9.17;;;3.13;;
1577;SDS011;57623;53.608;10.004;2023-05-29T05:15:10;9.40;;;3.77;;
1577;SDS011;57623;53.608;10.004;2023-05-29T05:17:39;10.20;;;3.57;;
1577;SDS011;57623;53.608;10.004;2023-05-29T05:20:08;9.10;;;3.23;;
1577;SDS011;57623;53.608;10.004;2023-05-29T05:22:37;11.73;;;3.20;;
1577;SDS011;57623;53.608;10.004;2023-05-29T05:25:05;11.77;;;3.30;;
1577;SDS011;57623;53.608;10.004;2023-05-29T05:27:34;8.50;;;2.87;;
1577;SDS011;57623;53.608;10.004;2023-05-29T05:30:03;6.73;;;3.13;;
1577;SDS011;57623;53.608;10.004;2023-05-29T05:32:33;10.67;;;2.87;;
1577;SDS011;57623;53.608;10.004;2023-05-29T05:35:01;9.50;;;3.67;;
1577;SDS011;57623;53.608;10.004;2023-05-29T05:37:29;8.80;;;3.30;;
1577;SDS011;57623;53.608;10.004;2023-05-29T05:39:57;10.87;;;3.17;;
1577;SDS011;57623;53.608;10.004;2023-05-29T05:42:26;10.10;;;2.90;;
1577;SDS011;57623;53.608;10.004;2023-05-29T05:44:54;8.90;;;2.80;;
1577;SDS011;57623;53.608;10.004;2023-05-29T05:47:24;10.50;;;3.03;;
1577;SDS011;57623;53.608;10.004;2023-05-29T05:49:53;12.07;;;3.67;;
1577;SDS011;57623;53.608;10.004;2023-05-29T05:52:24;7.77;;;2.80;;
1577;SDS011;57623;53.608;10.004;2023-05-29T05:54:56;13.53;;;3.27;;
1577;SDS011;57623;53.608;10.004;2023-05-29T05:57:24;8.13;;;3.30;;
1577;SDS011;57623;53.608;10.004;2023-05-29T05:59:53;11.27;;;3.50;;
1577;SDS011;57623;53.608;10.004;2023-05-29T06:02:21;13.07;;;3.37;;
1577;SDS011;57623;53.608;10.004;2023-05-29T06:04:51;10.80;;;3.60;;
1577;SDS011;57623;53.608;10.004;2023-05-29T06:07:19;9.70;;;3.57;;
1577;SDS011;57623;53.608;10.004;2023-05-29T06:09:47;9.50;;;3.87;;
1577;SDS011;57623;53.608;10.004;2023-05-29T06:12:15;6.67;;;3.07;;
1577;SDS011;57623;53.608;10.004;2023-05-29T06:14:43;9.17;;;3.77;;
1577;SDS011;57623;53.608;10.004;2023-05-29T06:17:17;7.67;;;3.70;;
1577;SDS011;57623;53.608;10.004;2023-05-29T06:19:49;10.90;;;3.70;;
1577;SDS011;57623;53.608;10.004;2023-05-29T06:22:18;8.37;;;3.17;;
1577;SDS011;57623;53.608;10.004;2023-05-29T06:24:46;9.70;;;3.90;;
1577;SDS011;57623;53.608;10.004;2023-05-29T06:27:14;8.37;;;3.50;;
1577;SDS011;57623;53.608;10.004;2023-05-29T06:29:42;8.70;;;3.10;;
1577;SDS011;57623;53.608;10.004;2023-05-29T06:32:10;8.30;;;3.23;;
1577;SDS011;57623;53.608;10.004;2023-05-29T06:34:38;9.50;;;2.87;;
1577;SDS011;57623;53.608;10.004;2023-05-29T06:37:07;7.90;;;3.10;;
1577;SDS011;57623;53.608;10.004;2023-05-29T06:39:35;9.67;;;3.43;;
1577;SDS011;57623;53.608;10.004;2023-05-29T06:42:03;12.80;;;3.40;;
1577;SDS011;57623;53.608;10.004;2023-05-29T06:44:31;12.10;;;3.40;;
1577;SDS011;57623;53.608;10.004;2023-05-29T06:46:59;8.27;;;2.97;;
1577;SDS011;57623;53.608;10.004;2023-05-29T06:49:27;7.80;;;3.47;;
1577;SDS011;57623;53.608;10.004;2023-05-29T06:51:55;8.80;;;2.90;;
1577;SDS011;57623;53.608;10.004;2023-05-29T06:54:25;11.30;;;3.70;;
1577;SDS011;57623;53.608;10.004;2023-05-29T06:56:53;9.80;;;3.80;;
1577;SDS011;57623;53.608;10.004;2023-05-29T06:59:36;8.80;;;3.33;;
1577;SDS011;57623;53.608;10.004;2023-05-29T07:02:06;11.20;;;3.33;;
1577;SDS011;57623;53.608;10.004;2023-05-29T07:04:34;10.00;;;3.60;;
1577;SDS011;57623;53.608;10.004;2023-05-29T07:07:02;13.07;;;4.17;;
1577;SDS011;57623;53.608;10.004;2023-05-29T07:09:31;10.77;;;3.87;;
1577;SDS011;57623;53.608;10.004;2023-05-29T07:12:02;6.70;;;3.07;;
1577;SDS011;57623;53.608;10.004;2023-05-29T07:14:30;7.80;;;3.50;;
1577;SDS011;57623;53.608;10.004;2023-05-29T07:16:58;5.87;;;3.10;;
1577;SDS011;57623;53.608;10.004;2023-05-29T07:19:26;9.57;;;4.30;;
1577;SDS011;57623;53.608;10.004;2023-05-29T07:21:55;11.27;;;3.53;;
1577;SDS011;57623;53.608;10.004;2023-05-29T07:24:23;10.70;;;4.20;;
1577;SDS011;57623;53.608;10.004;2023-05-29T07:26:53;10.33;;;4.47;;
1577;SDS011;57623;53.608;10.004;2023-05-29T07:29:21;8.67;;;3.33;;
1577;SDS011;57623;53.608;10.004;2023-05-29T07:31:50;10.87;;;3.80;;
1577;SDS011;57623;53.608;10.004;2023-05-29T07:34:18;8.20;;;3.70;;
1577;SDS011;57623;53.608;10.004;2023-05-29T07:36:56;7.30;;;3.20;;
1577;SDS011;57623;53.608;10.004;2023-05-29T07:39:26;6.50;;;3.07;;
1577;SDS011;57623;53.608;10.004;2023-05-29T07:41:55;10.27;;;3.30;;
1577;SDS011;57623;53.608;10.004;2023-05-29T07:44:23;9.33;;;3.00;;
1577;SDS011;57623;53.608;10.004;2023-05-29T07:46:51;7.13;;;3.47;;
1577;SDS011;57623;53.608;10.004;2023-05-29T07:49:20;10.40;;;3.43;;
1577;SDS011;57623;53.608;10.004;2023-05-29T07:51:48;11.17;;;2.90;;
1577;SDS011;57623;53.608;10.004;2023-05-29T07:54:16;11.57;;;3.40;;
1577;SDS011;57623;53.608;10.004;2023-05-29T07:56:46;7.50;;;3.17;;
1577;SDS011;57623;53.608;10.004;2023-05-29T07:59:16;10.50;;;3.40;;
1577;SDS011;57623;53.608;10.004;2023-05-29T08:01:44;8.87;;;2.60;;
1577;SDS011;57623;53.608;10.004;2023-05-29T08:04:12;6.20;;;3.17;;
1577;SDS011;57623;53.608;10.004;2023-05-29T08:06:40;10.47;;;3.50;;
1577;SDS011;57623;53.608;10.004;2023-05-29T08:09:09;8.63;;;3.13;;
1577;SDS011;57623;53.608;10.004;2023-05-29T08:11:40;15.27;;;3.83;;
1577;SDS011;57623;53.608;10.004;2023-05-29T08:14:08;7.10;;;3.60;;
1577;SDS011;57623;53.608;10.004;2023-05-29T08:16:38;11.00;;;3.40;;
1577;SDS011;57623;53.608;10.004;2023-05-29T08:19:07;7.10;;;3.33;;
1577;SDS011;57623;53.608;10.004;2023-05-29T08:21:35;7.10;;;2.93;;
1577;SDS011;57623;53.608;10.004;2023-05-29T08:24:04;5.40;;;2.70;;
1577;SDS011;57623;53.608;10.004;2023-05-29T08:26:32;9.13;;;3.07;;
1577;SDS011;57623;53.608;10.004;2023-05-29T08:29:00;8.00;;;3.37;;
1577;SDS011;57623;53.608;10.004;2023-05-29T08:31:29;7.80;;;3.20;;
1577;SDS011;57623;53.608;10.004;2023-05-29T08:33:58;10.80;;;3.40;;
1577;SDS011;57623;53.608;10.004;2023-05-29T08:36:26;10.93;;;3.50;;
1577;SDS011;57623;53.608;10.004;2023-05-29T08:38:54;5.90;;;2.80;;
1577;SDS011;57623;53.608;10.004;2023-05-29T08:41:24;8.20;;;2.93;;
1577;SDS011;57623;53.608;10.004;2023-05-29T08:43:55;10.60;;;3.07;;
1577;SDS011;57623;53.608;10.004;2023-05-29T08:46:26;12.53;;;3.17;;
1577;SDS011;57623;53.608;10.004;2023-05-29T08:48:55;9.53;;;3.60;;
1577;SDS011;57623;53.608;10.004;2023-05-29T08:51:31;8.00;;;3.30;;
1577;SDS011;57623;53.608;10.004;2023-05-29T08:54:03;6.93;;;3.00;;
1577;SDS011;57623;53.608;10.004;2023-05-29T08:56:32;8.90;;;3.33;;
1577;SDS011;57623;53.608;10.004;2023-05-29T08:59:01;7.83;;;3.10;;
1577;SDS011;57623;53.608;10.004;2023-05-29T09:01:33;6.80;;;3.17;;
1577;SDS011;57623;53.608;10.004;2023-05-29T09:04:04;8.27;;;3.23;;
1577;SDS011;57623;53.608;10.004;2023-05-29T09:06:32;11.47;;;3.17;;
1577;SDS011;57623;53.608;10.004;2023-05-29T09:09:00;8.00;;;3.07;;
1577;SDS011;57623;53.608;10.004;2023-05-29T09:11:30;6.73;;;3.13;;
1577;SDS011;57623;53.608;10.004;2023-05-29T09:13:59;7.57;;;2.80;;
1577;SDS011;57623;53.608;10.004;2023-05-29T09:16:28;6.60;;;3.50;;
1577;SDS011;57623;53.608;10.004;2023-05-29T09:19:05;8.07;;;3.13;;
1577;SDS011;57623;53.608;10.004;2023-05-29T09:21:33;5.77;;;2.90;;
1577;SDS011;57623;53.608;10.004;2023-05-29T09:24:02;7.17;;;2.60;;
1577;SDS011;57623;53.608;10.004;2023-05-29T09:26:31;8.03;;;3.00;;
1577;SDS011;57623;53.608;10.004;2023-05-29T09:28:59;8.27;;;3.13;;
1577;SDS011;57623;53.608;10.004;2023-05-29T09:31:27;6.57;;;3.33;;
1577;SDS011;57623;53.608;10.004;2023-05-29T09:33:56;7.80;;;3.03;;
1577;SDS011;57623;53.608;10.004;2023-05-29T09:36:30;5.23;;;2.67;;
1577;SDS011;57623;53.608;10.004;2023-05-29T09:39:01;7.47;;;2.97;;
1577;SDS011;57623;53.608;10.004;2023-05-29T09:41:42;8.30;;;3.33;;
1577;SDS011;57623;53.608;10.004;2023-05-29T09:44:12;9.30;;;3.67;;
1577;SDS011;57623;53.608;10.004;2023-05-29T09:46:40;7.50;;;2.77;;
1577;SDS011;57623;53.608;10.004;2023-05-29T09:49:11;8.90;;;3.40;;
1577;SDS011;57623;53.608;10.004;2023-05-29T09:51:41;6.27;;;2.97;;
1577;SDS011;57623;53.608;10.004;2023-05-29T09:54:15;14.00;;;3.60;;
1577;SDS011;57623;53.608;10.004;2023-05-29T09:56:43;7.60;;;3.20;;
1577;SDS011;57623;53.608;10.004;2023-05-29T09:59:12;7.93;;;3.03;;
1577;SDS011;57623;53.608;10.004;2023-05-29T10:01:46;6.43;;;3.10;;
1577;SDS011;57623;53.608;10.004;2023-05-29T10:04:14;6.87;;;2.90;;
1577;SDS011;57623;53.608;10.004;2023-05-29T10:06:44;7.30;;;2.80;;
1577;SDS011;57623;53.608;10.004;2023-05-29T10:09:15;6.00;;;3.00;;
1577;SDS011;57623;53.608;10.004;2023-05-29T10:11:47;8.27;;;3.13;;
1577;SDS011;57623;53.608;10.004;2023-05-29T10:14:17;6.90;;;2.67;;
1577;SDS011;57623;53.608;10.004;2023-05-29T10:16:47;7.13;;;2.83;;
1577;SDS011;57623;53.608;10.004;2023-05-29T10:19:18;10.03;;;3.37;;
1577;SDS011;57623;53.608;10.004;2023-05-29T10:21:57;11.07;;;3.10;;
1577;SDS011;57623;53.608;10.004;2023-05-29T10:24:29;5.93;;;2.77;;
1577;SDS011;57623;53.608;10.004;2023-05-29T10:26:58;8.03;;;2.60;;
1577;SDS011;57623;53.608;10.004;2023-05-29T10:29:28;8.43;;;3.10;;
1577;SDS011;57623;53.608;10.004;2023-05-29T10:32:04;7.33;;;2.60;;
1577;SDS011;57623;53.608;10.004;2023-05-29T10:34:41;6.00;;;3.10;;
1577;SDS011;57623;53.608;10.004;2023-05-29T10:37:17;5.80;;;2.30;;
1577;SDS011;57623;53.608;10.004;2023-05-29T10:39:52;6.67;;;2.93;;
1577;SDS011;57623;53.608;10.004;2023-05-29T10:51:26;7.33;;;3.03;;
1577;SDS011;57623;53.608;10.004;2023-05-29T10:53:56;5.13;;;2.77;;
1577;SDS011;57623;53.608;10.004;2023-05-29T10:56:27;5.40;;;2.70;;
1577;SDS011;57623;53.608;10.004;2023-05-29T10:58:57;7.97;;;2.83;;
1577;SDS011;57623;53.608;10.004;2023-05-29T11:01:27;4.63;;;2.80;;
1577;SDS011;57623;53.608;10.004;2023-05-29T11:06:53;4.20;;;2.50;;
1577;SDS011;57623;53.608;10.004;2023-05-29T11:09:30;7.00;;;2.70;;
1577;SDS011;57623;53.608;10.004;2023-05-29T11:12:17;4.90;;;2.67;;
1577;SDS011;57623;53.608;10.004;2023-05-29T11:15:01;7.30;;;2.57;;
1577;SDS011;57623;53.608;10.004;2023-05-29T11:17:31;6.33;;;2.67;;
1577;SDS011;57623;53.608;10.004;2023-05-29T11:20:27;4.77;;;2.50;;
1577;SDS011;57623;53.608;10.004;2023-05-29T11:23:01;6.40;;;2.83;;
1577;SDS011;57623;53.608;10.004;2023-05-29T11:25:35;7.33;;;2.60;;
1577;SDS011;57623;53.608;10.004;2023-05-29T11:28:04;5.13;;;2.63;;
1577;SDS011;57623;53.608;10.004;2023-05-29T11:30:42;6.50;;;2.73;;
1577;SDS011;57623;53.608;10.004;2023-05-29T11:33:13;7.17;;;2.77;;
1577;SDS011;57623;53.608;10.004;2023-05-29T11:35:54;8.07;;;3.03;;
1577;SDS011;57623;53.608;10.004;2023-05-29T11:38:24;12.03;;;3.20;;
1577;SDS011;57623;53.608;10.004;2023-05-29T11:40:54;4.07;;;2.73;;
1577;SDS011;57623;53.608;10.004;2023-05-29T11:43:24;5.57;;;2.60;;
1577;SDS011;57623;53.608;10.004;2023-05-29T11:45:52;3.50;;;2.00;;
1577;SDS011;57623;53.608;10.004;2023-05-29T11:48:21;5.43;;;2.30;;
1577;SDS011;57623;53.608;10.004;2023-05-29T11:50:50;7.87;;;2.70;;
1577;SDS011;57623;53.608;10.004;2023-05-29T11:53:18;7.17;;;3.00;;
1577;SDS011;57623;53.608;10.004;2023-05-29T11:55:46;7.20;;;2.77;;
1577;SDS011;57623;53.608;10.004;2023-05-29T11:58:15;7.13;;;2.57;;
1577;SDS011;57623;53.608;10.004;2023-05-29T12:00:44;6.90;;;2.83;;
1577;SDS011;57623;53.608;10.004;2023-05-29T12:03:16;5.70;;;2.77;;
1577;SDS011;57623;53.608;10.004;2023-05-29T12:05:46;7.00;;;2.50;;
1577;SDS011;57623;53.608;10.004;2023-05-29T12:08:20;5.13;;;2.57;;
1577;SDS011;57623;53.608;10.004;2023-05-29T12:10:49;5.27;;;2.93;;
1577;SDS011;57623;53.608;10.004;2023-05-29T12:13:19;6.77;;;2.53;;
1577;SDS011;57623;53.608;10.004;2023-05-29T12:15:49;5.00;;;2.30;;
1577;SDS011;57623;53.608;10.004;2023-05-29T12:18:20;5.63;;;2.50;;
1577;SDS011;57623;53.608;10.004;2023-05-29T12:20:48;6.03;;;3.00;;
1577;SDS011;57623;53.608;10.004;2023-05-29T12:23:17;9.40;;;3.00;;
1577;SDS011;57623;53.608;10.004;2023-05-29T12:25:47;6.23;;;2.60;;
1577;SDS011;57623;53.608;10.004;2023-05-29T12:28:15;5.30;;;2.50;;
1577;SDS011;57623;53.608;10.004;2023-05-29T12:30:47;7.30;;;2.40;;
1577;SDS011;57623;53.608;10.004;2023-05-29T12:33:27;6.40;;;2.63;;
1577;SDS011;57623;53.608;10.004;2023-05-29T12:36:03;6.63;;;2.83;;
1577;SDS011;57623;53.608;10.004;2023-05-29T12:38:32;5.80;;;2.73;;
1577;SDS011;57623;53.608;10.004;2023-05-29T12:41:02;5.40;;;2.73;;
1577;SDS011;57623;53.608;10.004;2023-05-29T12:43:30;6.10;;;2.60;;
1577;SDS011;57623;53.608;10.004;2023-05-29T12:46:00;6.63;;;3.00;;
1577;SDS011;57623;53.608;10.004;2023-05-29T12:48:28;4.73;;;2.57;;
1577;SDS011;57623;53.608;10.004;2023-05-29T12:50:58;5.60;;;2.60;;
1577;SDS011;57623;53.608;10.004;2023-05-29T12:53:28;3.27;;;2.60;;
1577;SDS011;57623;53.608;10.004;2023-05-29T12:55:57;5.47;;;2.60;;
1577;SDS011;57623;53.608;10.004;2023-05-29T12:58:27;4.17;;;2.30;;
1577;SDS011;57623;53.608;10.004;2023-05-29T13:00:55;7.30;;;2.90;;
1577;SDS011;57623;53.608;10.004;2023-05-29T13:03:24;4.00;;;1.97;;
1577;SDS011;57623;53.608;10.004;2023-05-29T13:05:52;3.30;;;2.47;;
1577;SDS011;57623;53.608;10.004;2023-05-29T13:08:21;3.73;;;2.20;;
1577;SDS011;57623;53.608;10.004;2023-05-29T13:10:49;3.77;;;2.60;;
1577;SDS011;57623;53.608;10.004;2023-05-29T13:13:17;4.17;;;2.57;;
1577;SDS011;57623;53.608;10.004;2023-05-29T13:15:46;5.07;;;2.50;;
1577;SDS011;57623;53.608;10.004;2023-05-29T13:18:14;5.73;;;2.63;;
1577;SDS011;57623;53.608;10.004;2023-05-29T13:20:43;4.60;;;2.53;;
1577;SDS011;57623;53.608;10.004;2023-05-29T13:23:12;4.47;;;2.47;;
1577;SDS011;57623;53.608;10.004;2023-05-29T13:25:40;2.73;;;2.07;;
1577;SDS011;57623;53.608;10.004;2023-05-29T13:28:08;3.47;;;1.90;;
1577;SDS011;57623;53.608;10.004;2023-05-29T13:30:36;2.80;;;2.20;;
1577;SDS011;57623;53.608;10.004;2023-05-29T13:33:04;3.40;;;2.20;;
1577;SDS011;57623;53.608;10.004;2023-05-29T13:35:32;5.13;;;2.60;;
1577;SDS011;57623;53.608;10.004;2023-05-29T13:38:01;5.50;;;2.70;;
1577;SDS011;57623;53.608;10.004;2023-05-29T13:40:29;5.17;;;2.87;;
1577;SDS011;57623;53.608;10.004;2023-05-29T13:42:58;5.47;;;2.50;;
1577;SDS011;57623;53.608;10.004;2023-05-29T13:45:26;4.67;;;2.27;;
1577;SDS011;57623;53.608;10.004;2023-05-29T13:47:55;4.80;;;2.27;;
1577;SDS011;57623;53.608;10.004;2023-05-29T13:50:23;4.57;;;2.40;;
1577;SDS011;57623;53.608;10.004;2023-05-29T13:52:51;5.30;;;2.50;;
1577;SDS011;57623;53.608;10.004;2023-05-29T13:55:21;6.20;;;2.40;;
1577;SDS011;57623;53.608;10.004;2023-05-29T13:57:49;5.63;;;2.77;;
1577;SDS011;57623;53.608;10.004;2023-05-29T14:00:17;5.47;;;2.67;;
1577;SDS011;57623;53.608;10.004;2023-05-29T14:02:45;4.90;;;2.80;;
1577;SDS011;57623;53.608;10.004;2023-05-29T14:05:14;6.40;;;3.13;;
1577;SDS011;57623;53.608;10.004;2023-05-29T14:07:42;3.87;;;3.37;;
1577;SDS011;57623;53.608;10.004;2023-05-29T14:10:10;4.70;;;2.70;;
1577;SDS011;57623;53.608;10.004;2023-05-29T14:12:40;5.83;;;3.60;;
1577;SDS011;57623;53.608;10.004;2023-05-29T14:15:08;4.40;;;2.20;;
1577;SDS011;57623;53.608;10.004;2023-05-29T14:17:37;5.07;;;2.63;;
1577;SDS011;57623;53.608;10.004;2023-05-29T14:20:05;5.13;;;2.40;;
1577;SDS011;57623;53.608;10.004;2023-05-29T14:22:35;4.23;;;2.57;;
1577;SDS011;57623;53.608;10.004;2023-05-29T14:25:04;6.23;;;2.47;;
1577;SDS011;57623;53.608;10.004;2023-05-29T14:27:32;4.33;;;2.63;;
1577;SDS011;57623;53.608;10.004;2023-05-29T14:30:02;6.97;;;2.53;;
1577;SDS011;57623;53.608;10.004;2023-05-29T14:32:30;5.37;;;2.30;;
1577;SDS011;57623;53.608;10.004;2023-05-29T14:34:58;5.90;;;2.97;;
1577;SDS011;57623;53.608;10.004;2023-05-29T14:37:27;3.93;;;2.50;;
1577;SDS011;57623;53.608;10.004;2023-05-29T14:39:55;3.80;;;2.27;;
1577;SDS011;57623;53.608;10.004;2023-05-29T14:42:23;2.57;;;2.10;;
1577;SDS011;57623;53.608;10.004;2023-05-29T14:44:51;4.40;;;2.33;;
1577;SDS011;57623;53.608;10.004;2023-05-29T14:47:21;4.20;;;2.27;;
1577;SDS011;57623;53.608;10.004;2023-05-29T14:49:49;4.57;;;2.43;;
1577;SDS011;57623;53.608;10.004;2023-05-29T14:52:17;3.93;;;2.90;;
1577;SDS011;57623;53.608;10.004;2023-05-29T14:54:45;4.43;;;2.17;;
1577;SDS011;57623;53.608;10.004;2023-05-29T14:57:13;4.27;;;2.60;;
1577;SDS011;57623;53.608;10.004;2023-05-29T14:59:41;4.53;;;2.40;;
1577;SDS011;57623;53.608;10.004;2023-05-29T15:02:09;5.67;;;2.50;;
1577;SDS011;57623;53.608;10.004;2023-05-29T15:04:38;6.10;;;2.90;;
1577;SDS011;57623;53.608;10.004;2023-05-29T15:07:06;14.63;;;8.50;;
1577;SDS011;57623;53.608;10.004;2023-05-29T15:09:34;30.17;;;27.70;;
1577;SDS011;57623;53.608;10.004;2023-05-29T15:12:02;119.47;;;109.60;;